sensor_id;sensor_type;location;lat;lon;timestamp;pressure;altitude;pressure_sealevel;temperature;humidity
28626;BME280;18905;42.668;23.364;2023-04-26T00:02:21;94124.59;;;9.84;100.00
28626;BME280;18905;42.668;23.364;2023-04-26T00:04:51;94151.56;;;9.84;100.00
28626;BME280;18905;42.668;23.364;2023-04-26T00:07:21;94185.09;;;10.07;100.00
28626;BME280;18905;42.668;23.364;2023-04-26T00:09:47;94162.06;;;10.10;100.00
28626;BME280;18905;42.668;23.364;2023-04-26T00:12:12;94142.28;;;10.06;100.00
28626;BME280;18905;42.668;23.364;2023-04-26T00:14:38;94163.94;;;10.09;100.00
28626;BME280;18905;42.668;23.364;2023-04-26T00:17:03;94126.03;;;9.82;100.00
28626;BME280;18905;42.668;23.364;2023-04-26T00:19:29;94085.91;;;9.68;100.00
28626;BME280;18905;42.668;23.364;2023-04-26T00:21:55;94092.06;;;9.45;100.00
28626;BME280;18905;42.668;23.364;2023-04-26T00:24:20;94120.19;;;9.68;100.00
28626;BME280;18905;42.668;23.364;2023-04-26T00:26:46;94106.25;;;9.66;100.00
28626;BME280;18905;42.668;23.364;2023-04-26T00:29:11;94121.97;;;9.76;100.00
28626;BME280;18905;42.668;23.364;2023-04-26T00:31:37;94073.91;;;9.54;100.00
28626;BME280;18905;42.668;23.364;2023-04-26T00:34:02;94138.22;;;10.12;100.00
28626;BME280;18905;42.668;23.364;2023-04-26T00:36:28;94130.91;;;10.12;100.00
28626;BME280;18905;42.668;23.364;2023-04-26T00:38:53;94095.47;;;9.66;100.00
28626;BME280;18905;42.668;23.364;2023-04-26T00:41:18;94095.66;;;9.49;100.00
28626;BME280;18905;42.668;23.364;2023-04-26T00:43:44;94113.66;;;9.81;100.00
28626;BME280;18905;42.668;23.364;2023-04-26T00:46:09;94156.34;;;10.11;100.00
28626;BME280;18905;42.668;23.364;2023-04-26T00:48:36;94153.28;;;10.13;100.00
28626;BME280;18905;42.668;23.364;2023-04-26T00:51:03;94111.22;;;9.88;100.00
28626;BME280;18905;42.668;23.364;2023-04-26T00:53:29;94141.88;;;9.95;100.00
28626;BME280;18905;42.668;23.364;2023-04-26T00:55:55;94133.47;;;9.97;100.00
28626;BME280;18905;42.668;23.364;2023-04-26T00:58:21;94099.75;;;9.79;100.00
28626;BME280;18905;42.668;23.364;2023-04-26T01:00:47;94134.19;;;10.06;100.00
28626;BME280;18905;42.668;23.364;2023-04-26T01:03:14;94080.44;;;9.77;100.00
28626;BME280;18905;42.668;23.364;2023-04-26T01:05:39;94110.41;;;9.87;100.00
28626;BME280;18905;42.668;23.364;2023-04-26T01:08:06;94081.53;;;9.52;100.00
28626;BME280;18905;42.668;23.364;2023-04-26T01:10:33;94144.69;;;9.99;100.00
28626;BME280;18905;42.668;23.364;2023-04-26T01:12:59;94164.84;;;10.13;100.00
28626;BME280;18905;42.668;23.364;2023-04-26T01:15:25;94148.47;;;10.06;100.00
28626;BME280;18905;42.668;23.364;2023-04-26T01:17:52;94145.41;;;10.08;100.00
28626;BME280;18905;42.668;23.364;2023-04-26T01:20:18;94134.81;;;10.03;100.00
28626;BME280;18905;42.668;23.364;2023-04-26T01:22:44;94136.22;;;10.09;100.00
28626;BME280;18905;42.668;23.364;2023-04-26T01:25:11;94127.44;;;10.12;100.00
28626;BME280;18905;42.668;23.364;2023-04-26T01:27:36;94097.72;;;9.88;100.00
28626;BME280;18905;42.668;23.364;2023-04-26T01:30:03;94138.44;;;10.07;100.00
28626;BME280;18905;42.668;23.364;2023-04-26T01:32:29;94100.88;;;9.90;100.00
28626;BME280;18905;42.668;23.364;2023-04-26T01:34:54;94120.78;;;9.97;100.00
28626;BME280;18905;42.668;23.364;2023-04-26T01:37:20;94066.63;;;9.66;100.00
28626;BME280;18905;42.668;23.364;2023-04-26T01:39:45;94066.69;;;9.58;100.00
28626;BME280;18905;42.668;23.364;2023-04-26T01:42:11;94145.53;;;10.11;100.00
28626;BME280;18905;42.668;23.364;2023-04-26T01:44:36;94054.25;;;9.53;100.00
28626;BME280;18905;42.668;23.364;2023-04-26T01:47:02;94141.72;;;10.12;100.00
28626;BME280;18905;42.668;23.364;2023-04-26T01:49:27;94131.00;;;9.92;100.00
28626;BME280;18905;42.668;23.364;2023-04-26T01:51:54;94109.28;;;9.76;100.00
28626;BME280;18905;42.668;23.364;2023-04-26T01:54:19;94142.22;;;9.94;100.00
28626;BME280;18905;42.668;23.364;2023-04-26T01:56:45;94132.00;;;9.87;100.00
28626;BME280;18905;42.668;23.364;2023-04-26T01:59:10;94101.28;;;9.56;100.00
28626;BME280;18905;42.668;23.364;2023-04-26T02:01:36;94084.88;;;9.49;100.00
28626;BME280;18905;42.668;23.364;2023-04-26T02:04:01;94138.50;;;9.86;100.00
28626;BME280;18905;42.668;23.364;2023-04-26T02:06:27;94132.84;;;9.55;100.00
28626;BME280;18905;42.668;23.364;2023-04-26T02:08:52;94139.72;;;9.65;100.00
28626;BME280;18905;42.668;23.364;2023-04-26T02:11:18;94104.16;;;9.39;100.00
28626;BME280;18905;42.668;23.364;2023-04-26T02:13:44;94109.22;;;9.28;100.00
28626;BME280;18905;42.668;23.364;2023-04-26T02:16:09;94147.75;;;9.53;100.00
28626;BME280;18905;42.668;23.364;2023-04-26T02:18:34;94069.63;;;9.08;100.00
28626;BME280;18905;42.668;23.364;2023-04-26T02:21:00;94137.03;;;9.65;100.00
28626;BME280;18905;42.668;23.364;2023-04-26T02:23:25;94103.53;;;9.54;100.00
28626;BME280;18905;42.668;23.364;2023-04-26T02:25:51;94135.00;;;9.74;100.00
28626;BME280;18905;42.668;23.364;2023-04-26T02:28:16;94137.94;;;9.81;100.00
28626;BME280;18905;42.668;23.364;2023-04-26T02:30:42;94074.47;;;9.15;100.00
28626;BME280;18905;42.668;23.364;2023-04-26T02:33:08;94093.81;;;9.29;100.00
28626;BME280;18905;42.668;23.364;2023-04-26T02:35:34;94132.19;;;9.58;100.00
28626;BME280;18905;42.668;23.364;2023-04-26T02:38:01;94082.28;;;8.96;100.00
28626;BME280;18905;42.668;23.364;2023-04-26T02:40:26;94131.84;;;9.27;100.00
28626;BME280;18905;42.668;23.364;2023-04-26T02:42:51;94099.16;;;9.17;100.00
28626;BME280;18905;42.668;23.364;2023-04-26T02:45:17;94142.16;;;9.46;100.00
28626;BME280;18905;42.668;23.364;2023-04-26T02:47:43;94113.00;;;9.27;100.00
28626;BME280;18905;42.668;23.364;2023-04-26T02:50:08;94131.25;;;9.54;100.00
28626;BME280;18905;42.668;23.364;2023-04-26T02:52:35;94116.78;;;9.14;100.00
28626;BME280;18905;42.668;23.364;2023-04-26T02:55:02;94127.91;;;9.25;100.00
28626;BME280;18905;42.668;23.364;2023-04-26T02:57:28;94115.47;;;9.20;100.00
28626;BME280;18905;42.668;23.364;2023-04-26T02:59:53;94106.34;;;9.13;100.00
28626;BME280;18905;42.668;23.364;2023-04-26T03:02:19;94073.13;;;8.56;100.00
28626;BME280;18905;42.668;23.364;2023-04-26T03:04:45;94063.72;;;8.41;100.00
28626;BME280;18905;42.668;23.364;2023-04-26T03:07:11;94135.09;;;8.88;100.00
28626;BME280;18905;42.668;23.364;2023-04-26T03:09:37;94111.81;;;8.84;100.00
28626;BME280;18905;42.668;23.364;2023-04-26T03:12:06;94109.81;;;8.81;100.00
28626;BME280;18905;42.668;23.364;2023-04-26T03:14:32;94067.00;;;8.67;100.00
28626;BME280;18905;42.668;23.364;2023-04-26T03:16:58;94065.69;;;8.73;100.00
28626;BME280;18905;42.668;23.364;2023-04-26T03:19:24;94076.56;;;8.97;100.00
28626;BME280;18905;42.668;23.364;2023-04-26T03:21:50;94101.34;;;8.91;100.00
28626;BME280;18905;42.668;23.364;2023-04-26T03:24:15;94071.28;;;8.48;100.00
28626;BME280;18905;42.668;23.364;2023-04-26T03:26:41;94096.94;;;8.66;100.00
28626;BME280;18905;42.668;23.364;2023-04-26T03:29:06;94092.94;;;8.72;100.00
28626;BME280;18905;42.668;23.364;2023-04-26T03:31:32;94122.00;;;8.99;100.00
28626;BME280;18905;42.668;23.364;2023-04-26T03:33:58;94096.38;;;8.93;100.00
28626;BME280;18905;42.668;23.364;2023-04-26T03:36:23;94115.13;;;9.22;100.00
28626;BME280;18905;42.668;23.364;2023-04-26T03:38:48;94085.84;;;9.20;100.00
28626;BME280;18905;42.668;23.364;2023-04-26T03:41:14;94091.94;;;9.41;100.00
28626;BME280;18905;42.668;23.364;2023-04-26T03:43:39;94092.63;;;9.50;100.00
28626;BME280;18905;42.668;23.364;2023-04-26T03:46:05;94094.00;;;9.68;100.00
28626;BME280;18905;42.668;23.364;2023-04-26T03:48:30;94119.97;;;9.85;100.00
28626;BME280;18905;42.668;23.364;2023-04-26T03:50:55;94116.50;;;9.96;100.00
28626;BME280;18905;42.668;23.364;2023-04-26T03:53:21;94128.44;;;10.31;100.00
28626;BME280;18905;42.668;23.364;2023-04-26T03:55:46;94115.25;;;11.33;100.00
28626;BME280;18905;42.668;23.364;2023-04-26T03:58:12;94103.97;;;13.05;100.00
28626;BME280;18905;42.668;23.364;2023-04-26T04:00:38;94119.19;;;14.86;100.00
28626;BME280;18905;42.668;23.364;2023-04-26T04:03:05;94125.00;;;16.13;100.00
28626;BME280;18905;42.668;23.364;2023-04-26T04:05:31;94103.13;;;17.00;100.00
28626;BME280;18905;42.668;23.364;2023-04-26T04:07:57;94122.09;;;17.40;100.00
28626;BME280;18905;42.668;23.364;2023-04-26T04:10:23;94105.63;;;16.65;100.00
28626;BME280;18905;42.668;23.364;2023-04-26T04:12:49;94100.44;;;16.06;100.00
28626;BME280;18905;42.668;23.364;2023-04-26T04:15:15;94132.59;;;15.94;100.00
28626;BME280;18905;42.668;23.364;2023-04-26T04:17:41;94142.44;;;16.05;100.00
28626;BME280;18905;42.668;23.364;2023-04-26T04:20:07;94127.94;;;15.61;100.00
28626;BME280;18905;42.668;23.364;2023-04-26T04:22:33;94080.50;;;14.67;100.00
28626;BME280;18905;42.668;23.364;2023-04-26T04:24:58;94133.00;;;14.48;100.00
28626;BME280;18905;42.668;23.364;2023-04-26T04:27:25;94099.38;;;13.89;100.00
28626;BME280;18905;42.668;23.364;2023-04-26T04:29:50;94074.00;;;13.36;100.00
28626;BME280;18905;42.668;23.364;2023-04-26T04:32:18;94131.78;;;13.40;100.00
28626;BME280;18905;42.668;23.364;2023-04-26T04:34:44;94120.59;;;13.23;100.00
28626;BME280;18905;42.668;23.364;2023-04-26T04:37:10;94073.53;;;12.77;100.00
28626;BME280;18905;42.668;23.364;2023-04-26T04:39:36;94152.97;;;13.16;100.00
28626;BME280;18905;42.668;23.364;2023-04-26T04:42:02;94097.22;;;12.46;100.00
28626;BME280;18905;42.668;23.364;2023-04-26T04:44:28;94088.78;;;12.32;100.00
28626;BME280;18905;42.668;23.364;2023-04-26T04:46:53;94083.34;;;12.47;100.00
28626;BME280;18905;42.668;23.364;2023-04-26T04:49:18;94063.44;;;11.74;100.00
28626;BME280;18905;42.668;23.364;2023-04-26T04:51:44;94085.25;;;11.38;100.00
28626;BME280;18905;42.668;23.364;2023-04-26T04:54:14;94164.84;;;12.11;100.00
28626;BME280;18905;42.668;23.364;2023-04-26T04:56:40;94078.59;;;11.20;100.00
28626;BME280;18905;42.668;23.364;2023-04-26T04:59:06;94022.00;;;10.96;100.00
28626;BME280;18905;42.668;23.364;2023-04-26T05:01:33;94106.97;;;11.41;100.00
28626;BME280;18905;42.668;23.364;2023-04-26T05:03:59;94124.94;;;11.22;100.00
28626;BME280;18905;42.668;23.364;2023-04-26T05:06:29;94100.50;;;10.75;100.00
28626;BME280;18905;42.668;23.364;2023-04-26T05:08:57;94157.97;;;10.76;100.00
28626;BME280;18905;42.668;23.364;2023-04-26T05:11:23;94003.16;;;9.57;100.00
28626;BME280;18905;42.668;23.364;2023-04-26T05:13:48;94005.84;;;10.05;100.00
28626;BME280;18905;42.668;23.364;2023-04-26T05:16:15;94104.09;;;10.67;100.00
28626;BME280;18905;42.668;23.364;2023-04-26T05:18:41;94090.03;;;11.01;100.00
28626;BME280;18905;42.668;23.364;2023-04-26T05:21:07;94123.88;;;11.11;100.00
28626;BME280;18905;42.668;23.364;2023-04-26T05:23:32;94024.25;;;10.27;100.00
28626;BME280;18905;42.668;23.364;2023-04-26T05:26:02;94120.81;;;11.40;100.00
28626;BME280;18905;42.668;23.364;2023-04-26T05:28:29;94094.19;;;10.71;100.00
28626;BME280;18905;42.668;23.364;2023-04-26T05:30:54;94039.31;;;10.16;100.00
28626;BME280;18905;42.668;23.364;2023-04-26T05:33:21;94157.34;;;11.34;100.00
28626;BME280;18905;42.668;23.364;2023-04-26T05:35:47;94128.06;;;10.57;100.00
28626;BME280;18905;42.668;23.364;2023-04-26T05:38:13;94100.78;;;10.86;100.00
28626;BME280;18905;42.668;23.364;2023-04-26T05:40:39;94093.88;;;10.61;100.00
28626;BME280;18905;42.668;23.364;2023-04-26T05:43:05;94137.66;;;10.94;100.00
28626;BME280;18905;42.668;23.364;2023-04-26T05:45:31;94065.50;;;11.22;100.00
28626;BME280;18905;42.668;23.364;2023-04-26T05:47:56;94088.41;;;11.83;100.00
28626;BME280;18905;42.668;23.364;2023-04-26T05:50:22;94135.25;;;12.68;100.00
28626;BME280;18905;42.668;23.364;2023-04-26T05:52:48;94056.00;;;11.71;100.00
28626;BME280;18905;42.668;23.364;2023-04-26T05:55:13;94108.69;;;12.39;100.00
28626;BME280;18905;42.668;23.364;2023-04-26T05:57:39;94069.00;;;12.12;100.00
28626;BME280;18905;42.668;23.364;2023-04-26T06:00:05;94034.81;;;11.73;100.00
28626;BME280;18905;42.668;23.364;2023-04-26T06:02:31;94066.66;;;11.21;100.00
28626;BME280;18905;42.668;23.364;2023-04-26T06:04:56;94102.00;;;11.59;100.00
28626;BME280;18905;42.668;23.364;2023-04-26T06:07:22;94056.84;;;11.44;100.00
28626;BME280;18905;42.668;23.364;2023-04-26T06:09:48;94067.09;;;11.66;100.00
28626;BME280;18905;42.668;23.364;2023-04-26T06:12:14;94093.53;;;11.73;100.00
28626;BME280;18905;42.668;23.364;2023-04-26T06:14:43;94172.69;;;12.01;100.00
28626;BME280;18905;42.668;23.364;2023-04-26T06:17:11;94090.75;;;11.69;100.00
28626;BME280;18905;42.668;23.364;2023-04-26T06:19:37;94061.28;;;11.36;100.00
28626;BME280;18905;42.668;23.364;2023-04-26T06:22:03;94171.47;;;12.29;100.00
28626;BME280;18905;42.668;23.364;2023-04-26T06:24:29;94074.81;;;12.14;100.00
28626;BME280;18905;42.668;23.364;2023-04-26T06:26:55;94177.88;;;13.02;100.00
28626;BME280;18905;42.668;23.364;2023-04-26T06:29:20;94067.00;;;12.44;100.00
28626;BME280;18905;42.668;23.364;2023-04-26T06:31:46;94079.28;;;13.10;100.00
28626;BME280;18905;42.668;23.364;2023-04-26T06:34:12;94095.28;;;13.34;100.00
28626;BME280;18905;42.668;23.364;2023-04-26T06:36:38;94045.81;;;12.65;100.00
28626;BME280;18905;42.668;23.364;2023-04-26T06:39:04;94182.59;;;13.62;100.00
28626;BME280;18905;42.668;23.364;2023-04-26T06:41:30;94175.75;;;13.30;100.00
28626;BME280;18905;42.668;23.364;2023-04-26T06:43:59;94171.47;;;12.95;100.00
28626;BME280;18905;42.668;23.364;2023-04-26T06:46:24;94042.47;;;12.52;100.00
28626;BME280;18905;42.668;23.364;2023-04-26T06:48:53;94029.22;;;12.66;100.00
28626;BME280;18905;42.668;23.364;2023-04-26T06:51:22;94048.75;;;12.56;100.00
28626;BME280;18905;42.668;23.364;2023-04-26T06:53:48;94029.41;;;12.23;100.00
28626;BME280;18905;42.668;23.364;2023-04-26T06:56:13;94153.47;;;12.06;100.00
28626;BME280;18905;42.668;23.364;2023-04-26T06:58:44;94064.19;;;12.06;100.00
28626;BME280;18905;42.668;23.364;2023-04-26T07:01:22;94177.13;;;12.90;100.00
28626;BME280;18905;42.668;23.364;2023-04-26T07:03:48;94057.03;;;11.51;100.00
28626;BME280;18905;42.668;23.364;2023-04-26T07:06:14;94099.38;;;11.90;100.00
28626;BME280;18905;42.668;23.364;2023-04-26T07:08:40;94108.44;;;11.82;100.00
28626;BME280;18905;42.668;23.364;2023-04-26T07:11:09;94056.97;;;12.44;100.00
28626;BME280;18905;42.668;23.364;2023-04-26T07:13:35;94058.19;;;11.81;100.00
28626;BME280;18905;42.668;23.364;2023-04-26T07:16:04;94103.13;;;12.01;100.00
28626;BME280;18905;42.668;23.364;2023-04-26T07:18:33;94114.94;;;12.59;100.00
28626;BME280;18905;42.668;23.364;2023-04-26T07:20:59;94028.34;;;12.09;100.00
28626;BME280;18905;42.668;23.364;2023-04-26T07:23:24;94040.59;;;11.87;100.00
28626;BME280;18905;42.668;23.364;2023-04-26T07:25:50;94139.22;;;13.62;100.00
28626;BME280;18905;42.668;23.364;2023-04-26T07:28:15;94071.34;;;13.40;100.00
28626;BME280;18905;42.668;23.364;2023-04-26T07:30:41;94190.28;;;13.98;100.00
28626;BME280;18905;42.668;23.364;2023-04-26T07:33:07;94060.88;;;12.12;100.00
28626;BME280;18905;42.668;23.364;2023-04-26T07:35:32;94149.56;;;12.34;100.00
28626;BME280;18905;42.668;23.364;2023-04-26T07:37:59;94101.97;;;12.49;100.00
28626;BME280;18905;42.668;23.364;2023-04-26T07:40:25;94165.25;;;12.44;100.00
28626;BME280;18905;42.668;23.364;2023-04-26T07:42:53;94195.34;;;12.89;100.00
28626;BME280;18905;42.668;23.364;2023-04-26T07:45:19;94195.88;;;13.48;100.00
28626;BME280;18905;42.668;23.364;2023-04-26T07:47:45;94155.28;;;13.14;100.00
28626;BME280;18905;42.668;23.364;2023-04-26T07:50:11;94108.72;;;12.93;100.00
28626;BME280;18905;42.668;23.364;2023-04-26T07:52:37;94114.41;;;13.22;100.00
28626;BME280;18905;42.668;23.364;2023-04-26T07:55:03;94133.44;;;13.45;100.00
28626;BME280;18905;42.668;23.364;2023-04-26T07:57:29;94153.25;;;13.49;97.33
28626;BME280;18905;42.668;23.364;2023-04-26T07:59:54;94097.03;;;12.54;100.00
28626;BME280;18905;42.668;23.364;2023-04-26T08:02:21;94215.19;;;12.93;100.00
28626;BME280;18905;42.668;23.364;2023-04-26T08:04:48;94102.03;;;12.52;100.00
28626;BME280;18905;42.668;23.364;2023-04-26T08:07:14;94074.53;;;12.69;95.80
28626;BME280;18905;42.668;23.364;2023-04-26T08:09:40;94034.19;;;12.64;96.37
28626;BME280;18905;42.668;23.364;2023-04-26T08:12:06;94125.88;;;12.81;100.00
28626;BME280;18905;42.668;23.364;2023-04-26T08:14:35;94191.16;;;12.76;100.00
28626;BME280;18905;42.668;23.364;2023-04-26T08:17:01;94123.72;;;12.37;100.00
28626;BME280;18905;42.668;23.364;2023-04-26T08:19:31;94123.97;;;12.82;100.00
28626;BME280;18905;42.668;23.364;2023-04-26T08:21:57;94078.56;;;12.94;99.66
28626;BME280;18905;42.668;23.364;2023-04-26T08:24:23;94063.50;;;12.78;97.79
28626;BME280;18905;42.668;23.364;2023-04-26T08:26:49;94107.78;;;12.85;98.89
28626;BME280;18905;42.668;23.364;2023-04-26T08:29:14;94095.09;;;12.70;100.00
28626;BME280;18905;42.668;23.364;2023-04-26T08:31:41;94049.88;;;13.50;95.84
28626;BME280;18905;42.668;23.364;2023-04-26T08:34:07;94153.28;;;13.90;93.11
28626;BME280;18905;42.668;23.364;2023-04-26T08:36:38;94041.25;;;13.26;95.77
28626;BME280;18905;42.668;23.364;2023-04-26T08:39:04;94037.06;;;12.90;97.38
28626;BME280;18905;42.668;23.364;2023-04-26T08:41:35;94049.59;;;12.60;96.84
28626;BME280;18905;42.668;23.364;2023-04-26T08:44:02;94155.56;;;12.93;100.00
28626;BME280;18905;42.668;23.364;2023-04-26T08:46:35;94209.28;;;13.41;99.37
28626;BME280;18905;42.668;23.364;2023-04-26T08:51:46;94163.78;;;12.97;99.43
28626;BME280;18905;42.668;23.364;2023-04-26T08:54:13;94164.03;;;13.45;96.39
28626;BME280;18905;42.668;23.364;2023-04-26T08:56:40;94132.63;;;13.63;90.75
28626;BME280;18905;42.668;23.364;2023-04-26T08:59:08;94129.22;;;13.28;92.42
28626;BME280;18905;42.668;23.364;2023-04-26T09:01:38;94091.69;;;13.49;91.77
28626;BME280;18905;42.668;23.364;2023-04-26T09:04:05;94111.03;;;13.48;89.92
28626;BME280;18905;42.668;23.364;2023-04-26T09:06:32;94087.47;;;12.95;93.02
28626;BME280;18905;42.668;23.364;2023-04-26T09:09:01;94177.81;;;13.56;91.83
28626;BME280;18905;42.668;23.364;2023-04-26T09:11:29;94080.44;;;13.28;90.89
28626;BME280;18905;42.668;23.364;2023-04-26T09:13:55;94215.69;;;14.09;94.46
28626;BME280;18905;42.668;23.364;2023-04-26T09:16:41;94233.06;;;14.24;92.41
28626;BME280;18905;42.668;23.364;2023-04-26T09:19:07;94146.34;;;14.15;88.05
28626;BME280;18905;42.668;23.364;2023-04-26T09:21:34;94083.19;;;13.51;88.32
28626;BME280;18905;42.668;23.364;2023-04-26T09:24:05;94159.94;;;14.34;85.29
28626;BME280;18905;42.668;23.364;2023-04-26T09:26:31;94130.63;;;13.60;86.97
28626;BME280;18905;42.668;23.364;2023-04-26T09:29:18;94084.16;;;13.20;85.75
28626;BME280;18905;42.668;23.364;2023-04-26T09:31:47;94094.44;;;13.94;85.55
28626;BME280;18905;42.668;23.364;2023-04-26T09:34:14;94131.44;;;14.02;84.90
28626;BME280;18905;42.668;23.364;2023-04-26T09:36:49;94106.88;;;13.35;85.33
28626;BME280;18905;42.668;23.364;2023-04-26T09:39:36;94220.03;;;14.14;86.69
28626;BME280;18905;42.668;23.364;2023-04-26T09:42:07;94079.69;;;12.74;91.03
28626;BME280;18905;42.668;23.364;2023-04-26T09:44:34;94180.72;;;13.09;92.81
28626;BME280;18905;42.668;23.364;2023-04-26T09:47:10;94165.84;;;13.38;92.18
28626;BME280;18905;42.668;23.364;2023-04-26T09:49:49;94129.66;;;13.49;90.21
28626;BME280;18905;42.668;23.364;2023-04-26T09:52:17;94051.97;;;13.38;85.82
28626;BME280;18905;42.668;23.364;2023-04-26T09:54:44;94214.06;;;14.69;86.01
28626;BME280;18905;42.668;23.364;2023-04-26T09:57:11;94066.03;;;13.24;84.03
28626;BME280;18905;42.668;23.364;2023-04-26T09:59:51;94075.94;;;13.36;85.28
28626;BME280;18905;42.668;23.364;2023-04-26T10:04:47;94204.38;;;14.49;85.24
28626;BME280;18905;42.668;23.364;2023-04-26T10:07:15;94162.50;;;14.05;84.75
28626;BME280;18905;42.668;23.364;2023-04-26T10:09:42;94161.78;;;14.53;81.23
28626;BME280;18905;42.668;23.364;2023-04-26T10:12:12;94034.16;;;13.82;79.82
28626;BME280;18905;42.668;23.364;2023-04-26T10:14:38;94117.84;;;14.02;77.78
28626;BME280;18905;42.668;23.364;2023-04-26T10:17:06;94059.72;;;14.03;77.07
28626;BME280;18905;42.668;23.364;2023-04-26T10:19:33;94103.13;;;14.26;76.13
28626;BME280;18905;42.668;23.364;2023-04-26T10:22:04;94115.63;;;14.30;73.94
28626;BME280;18905;42.668;23.364;2023-04-26T10:24:30;94196.22;;;14.49;74.53
28626;BME280;18905;42.668;23.364;2023-04-26T10:26:56;94094.06;;;14.18;74.04
28626;BME280;18905;42.668;23.364;2023-04-26T10:29:30;94084.97;;;14.07;74.33
28626;BME280;18905;42.668;23.364;2023-04-26T10:32:10;94064.16;;;14.15;69.27
28626;BME280;18905;42.668;23.364;2023-04-26T10:34:40;94047.41;;;13.87;69.69
28626;BME280;18905;42.668;23.364;2023-04-26T10:37:15;94111.91;;;14.19;70.53
28626;BME280;18905;42.668;23.364;2023-04-26T10:39:43;94124.31;;;14.39;70.59
28626;BME280;18905;42.668;23.364;2023-04-26T10:44:52;94049.69;;;13.21;71.88
28626;BME280;18905;42.668;23.364;2023-04-26T10:47:26;94185.06;;;14.76;74.24
28626;BME280;18905;42.668;23.364;2023-04-26T10:49:53;94063.03;;;13.93;68.66
28626;BME280;18905;42.668;23.364;2023-04-26T10:52:26;94098.38;;;13.97;68.55
28626;BME280;18905;42.668;23.364;2023-04-26T10:54:56;94051.41;;;13.70;69.19
28626;BME280;18905;42.668;23.364;2023-04-26T10:57:45;94059.84;;;13.88;67.68
28626;BME280;18905;42.668;23.364;2023-04-26T11:02:55;94186.03;;;14.91;67.12
28626;BME280;18905;42.668;23.364;2023-04-26T11:05:34;94189.50;;;14.88;66.75
28626;BME280;18905;42.668;23.364;2023-04-26T11:10:30;94099.66;;;14.25;66.87
28626;BME280;18905;42.668;23.364;2023-04-26T11:13:03;94051.34;;;13.89;68.78
28626;BME280;18905;42.668;23.364;2023-04-26T11:15:32;94128.69;;;14.47;66.69
28626;BME280;18905;42.668;23.364;2023-04-26T11:18:00;94115.38;;;14.16;61.10
28626;BME280;18905;42.668;23.364;2023-04-26T11:20:30;94197.00;;;14.27;65.12
28626;BME280;18905;42.668;23.364;2023-04-26T11:22:56;94058.78;;;13.73;66.02
28626;BME280;18905;42.668;23.364;2023-04-26T11:25:24;94189.50;;;14.88;62.19
28626;BME280;18905;42.668;23.364;2023-04-26T11:27:55;94122.00;;;14.41;62.52
28626;BME280;18905;42.668;23.364;2023-04-26T11:30:21;94189.91;;;14.90;62.89
28626;BME280;18905;42.668;23.364;2023-04-26T11:32:47;94187.13;;;15.38;63.60
28626;BME280;18905;42.668;23.364;2023-04-26T11:35:14;94108.31;;;14.60;61.11
28626;BME280;18905;42.668;23.364;2023-04-26T11:37:40;94115.03;;;14.40;61.65
28626;BME280;18905;42.668;23.364;2023-04-26T11:40:09;94113.16;;;14.22;61.29
28626;BME280;18905;42.668;23.364;2023-04-26T11:42:35;94071.00;;;14.28;64.25
28626;BME280;18905;42.668;23.364;2023-04-26T11:45:01;94100.97;;;14.87;60.32
28626;BME280;18905;42.668;23.364;2023-04-26T11:47:32;94085.34;;;14.28;62.62
28626;BME280;18905;42.668;23.364;2023-04-26T11:49:58;94096.81;;;14.96;61.07
28626;BME280;18905;42.668;23.364;2023-04-26T11:52:25;94183.50;;;15.57;60.09
28626;BME280;18905;42.668;23.364;2023-04-26T11:55:00;94067.59;;;14.60;59.74
28626;BME280;18905;42.668;23.364;2023-04-26T11:57:30;94177.56;;;15.48;58.31
28626;BME280;18905;42.668;23.364;2023-04-26T12:00:11;94068.53;;;14.45;57.63
28626;BME280;18905;42.668;23.364;2023-04-26T12:02:39;94056.28;;;14.84;59.18
28626;BME280;18905;42.668;23.364;2023-04-26T12:05:08;94083.53;;;14.91;58.41
28626;BME280;18905;42.668;23.364;2023-04-26T12:07:36;94111.00;;;14.83;58.91
28626;BME280;18905;42.668;23.364;2023-04-26T12:10:15;94101.38;;;14.89;59.36
28626;BME280;18905;42.668;23.364;2023-04-26T12:12:51;94033.88;;;14.35;59.30
28626;BME280;18905;42.668;23.364;2023-04-26T12:15:18;94070.34;;;14.93;58.61
28626;BME280;18905;42.668;23.364;2023-04-26T12:18:06;94159.97;;;15.12;59.34
28626;BME280;18905;42.668;23.364;2023-04-26T12:20:38;94168.13;;;15.12;61.99
28626;BME280;18905;42.668;23.364;2023-04-26T12:23:09;94119.75;;;14.99;66.30
28626;BME280;18905;42.668;23.364;2023-04-26T12:25:38;94032.75;;;14.95;63.90
28626;BME280;18905;42.668;23.364;2023-04-26T12:28:05;94118.56;;;15.55;68.11
28626;BME280;18905;42.668;23.364;2023-04-26T12:30:32;94070.47;;;15.00;59.93
28626;BME280;18905;42.668;23.364;2023-04-26T12:32:58;94159.31;;;17.15;94.52
28626;BME280;18905;42.668;23.364;2023-04-26T12:35:24;94159.19;;;17.55;74.40
28626;BME280;18905;42.668;23.364;2023-04-26T12:37:50;94158.06;;;17.63;73.91
28626;BME280;18905;42.668;23.364;2023-04-26T12:40:17;94161.50;;;16.92;61.56
28626;BME280;18905;42.668;23.364;2023-04-26T12:42:46;94160.06;;;17.09;59.84
28626;BME280;18905;42.668;23.364;2023-04-26T12:45:11;94164.75;;;16.21;54.65
28626;BME280;18905;42.668;23.364;2023-04-26T12:47:36;94126.97;;;15.43;56.33
28626;BME280;18905;42.668;23.364;2023-04-26T12:50:02;94146.41;;;15.16;59.08
28626;BME280;18905;42.668;23.364;2023-04-26T12:52:29;94158.53;;;15.51;59.73
28626;BME280;18905;42.668;23.364;2023-04-26T12:54:54;94160.59;;;15.61;59.49
28626;BME280;18905;42.668;23.364;2023-04-26T12:57:20;94164.66;;;15.41;60.45
28626;BME280;18905;42.668;23.364;2023-04-26T12:59:46;94153.72;;;14.86;61.35